• Join FlightAware (Why Join?)
  • Login
  • US Flag 
09:42AM EDT


 

Airport Tracker/Info


-or-


 

Live Flight TrackerFlight Track Log ✈ KAP29 ✈ 21-Jul-2013 ✈ KSLK - KBOS

Flight Track Log - Related Links

Times and Time Zones

All times are in EDT time to prevent confusion due to time zone crossing. See the KAP29 flight status page for this flight to view local times or setup timezone preferences in your user account.

Time Position Orientation Groundspeed Altitude Reporting Facility
EDT Latitude Longitude Course Direction KTS MPH feet Rate Location/Type
04:13PM 44.3475 -74.0775 112° Southeast 155 178 5,600  Level Boston Center
04:14PM 44.3189 -74.0361 134° Southeast 148 170 6,400 720 Climbing Boston Center
04:15PM 44.2906 -73.9889 130° Southeast 148 170 7,100 660 Climbing Boston Center
04:16PM 44.2681 -73.9447 125° Southeast 148 170 7,800 600 Climbing Boston Center
04:17PM 44.2500 -73.8978 118° Southeast 143 165 8,400 480 Climbing Boston Center
04:18PM 44.2297 -73.8481 120° Southeast 143 165 8,800 360 Climbing Boston Center
04:19PM 44.2097 -73.7928 117° Southeast 149 171 9,200 120 Climbing Boston Center
04:20PM 44.1853 -73.7314 119° Southeast 162 186 9,100 -60 Descending Boston Center
04:21PM 44.1608 -73.6728 120° Southeast 173 199 9,100  Level Boston Center
04:22PM 44.1367 -73.6086 118° Southeast 173 199 9,100  Level Boston Center
04:24PM 44.1122 -73.5447 118° Southeast 185 213 9,100  Level Boston Center
04:25PM 44.0775 -73.4717 123° Southeast 185 213 9,100  Level Boston Center
04:26PM 44.0425 -73.4219 134° Southeast 185 213 9,100  Level Boston Center
04:27PM 44.0075 -73.3753 136° Southeast 179 206 9,100  Level Boston Center
04:28PM 43.9744 -73.3228 131° Southeast 190 219 9,100  Level Boston Center
04:29PM 43.9500 -73.2619 119° Southeast 190 219 9,100  Level Boston Center
04:30PM 43.9256 -73.2011 119° Southeast 185 213 9,100  Level Boston Center
04:31PM 43.9008 -73.1403 119° Southeast 185 213 9,100  Level Boston Center
04:32PM 43.8742 -73.0794 121° Southeast 190 219 9,100  Level Boston Center
04:33PM 43.8472 -73.0186 122° Southeast 190 219 9,100  Level Boston Center
04:34PM 43.8225 -72.9553 118° Southeast 190 219 9,100  Level Boston Center
04:35PM 43.7958 -72.8975 123° Southeast 190 219 9,100  Level Boston Center
04:36PM 43.7689 -72.8283 118° Southeast 190 219 9,100  Level Boston Center
04:37PM 43.7442 -72.7706 121° Southeast 190 219 9,100  Level Boston Center
04:38PM 43.7172 -72.7100 122° Southeast 190 219 9,100  Level Boston Center
04:39PM 43.6881 -72.6411 120° Southeast 190 219 9,100 -60 Level Boston Center
04:40PM 43.6633 -72.5864 122° Southeast 185 213 9,000 -60 Descending Boston Center
04:41PM 43.6383 -72.5261 120° Southeast 185 213 9,000  Level Boston Center
04:42PM 43.6111 -72.4658 122° Southeast 185 213 9,000  Level Boston Center
04:43PM 43.5842 -72.4056 122° Southeast 190 219 9,000  Level Boston Center
04:44PM 43.5611 -72.3456 118° Southeast 190 219 9,000  Level Boston Center
04:45PM 43.5339 -72.2883 123° Southeast 185 213 9,000  Level Boston Center
04:46PM 43.5089 -72.2311 121° Southeast 185 213 9,000  Level Boston Center
04:47PM 43.4839 -72.1711 120° Southeast 185 213 9,000  Level Boston Center
04:48PM 43.4522 -72.0997 121° Southeast 185 213 9,000 -180 Level Boston Center
04:49PM 43.4272 -72.0400 120° Southeast 185 213 8,700 -300 Descending Boston Center
04:50PM 43.4042 -71.9914 123° Southeast 190 219 8,500 -300 Descending Boston Center
04:51PM 43.3683 -71.9117 122° Southeast 195 224 8,100 -300 Descending Boston Center
04:52PM 43.3431 -71.8578 123° Southeast 189 217 7,900 -240 Descending Boston Center
04:53PM 43.3136 -71.8181 136° Southeast 189 217 7,700 -300 Descending Boston Center
04:54PM 43.2675 -71.7558 135° Southeast 182 209 7,400 -300 Descending Boston Center
04:55PM 43.2275 -71.7019 136° Southeast 188 216 7,100 -300 Descending Boston Center
04:56PM 43.1958 -71.6542 132° Southeast 193 222 6,800 -360 Descending Boston Center
04:57PM 43.1667 -71.6167 137° Southeast 192 221 6,500 -420 Descending KA90
04:58PM 43.1333 -71.5667 132° Southeast 193 222 6,100 -300 Descending KA90
04:59PM 43.0833 -71.5167 144° Southeast 182 209 6,000 -60 Descending KA90
05:00PM 43.0500 -71.4667 132° Southeast 176 203 6,000  Level KA90
05:01PM 43.0000 -71.4333 154° Southeast 172 198 6,000  Level KA90
05:02PM 42.9667 -71.3833 132° Southeast 167 192 6,000  Level KA90
05:03PM 42.9333 -71.3500 144° Southeast 169 194 6,000  Level KA90
05:04PM 42.9000 -71.3167 144° Southeast 171 197 6,000  Level KA90
05:05PM 42.8500 -71.2833 154° Southeast 166 191 6,000  Level KA90
05:06PM 42.8167 -71.2667 160° South 166 191 6,000  Level KA90
05:07PM 42.7667 -71.2333 154° Southeast 168 193 6,000  Level KA90
05:08PM 42.7333 -71.2167 160° South 168 193 6,000  Level KA90
05:09PM 42.6833 -71.1833 154° Southeast 165 190 6,000 -240 Level KA90
05:10PM 42.6333 -71.1667 166° South 168 193 5,600 -420 Descending KA90
05:11PM 42.6000 -71.1333 144° Southeast 178 205 5,200 -300 Descending KA90
05:12PM 42.5500 -71.1333 180° South 175 201 5,000 -120 Descending KA90
05:13PM 42.5000 -71.1333 180° South 161 185 5,000  Level KA90
05:14PM 42.4500 -71.1333 180° South 154 177 5,000 -120 Level KA90
05:15PM 42.4167 -71.1333 180° South 155 178 4,800 -600 Descending KA90
05:16PM 42.3833 -71.1833 228° Southwest 169 194 3,900 -900 Descending KA90
05:17PM 42.3500 -71.1333 132° Southeast 169 194 3,100 -1,020 Descending KA90
05:18PM 42.3333 -71.0833 114° Southeast 149 171 1,900 -1,140 Descending KA90
05:19PM 42.3333 -71.0333 90° East 129 148 900 -1,020 Descending KA90
05:21PM 42.3630 -71.0064 56° Northeast  Level Estimated
05:28PM 42.3630 -71.0064 152° Southeast  Level Estimated